Stations météo

réclame
Mon MeteoGroup
Ernage, Belgique (6459): Température de l'air & dewpoint: 17.09.2018 04:00:00 - 23.09.2018 04:00:00 (CEST)Ernage, Belgique (6459): Vitesse du vent & gusts: 17.09.2018 04:00:00 - 23.09.2018 04:00:00 (CEST)Ernage, Belgique (6459): Direction du vent: 17.09.2018 04:00:00 - 23.09.2018 04:00:00 (CEST)Ernage, Belgique (6459): reduced air pressure: 17.09.2018 04:00:00 - 23.09.2018 04:00:00 (CEST)Ernage, Belgique (6459): Ensoleillement: 17.09.2018 04:00:00 - 23.09.2018 04:00:00 (CEST)Ernage, Belgique (6459): Quantités de précipitations: 17.09.2018 04:00:00 - 23.09.2018 04:00:00 (CEST)
Date & Time tt [°C] td [°C] ff [km/h] ff [knt] fx [km/h] fx [knt] dd ppp [hPa] sd [min] rr [mm]
23.09.2018 04:00:00 11,0 11,0 12 7 15 8 E 1012,8 0 1,5
23.09.2018 03:00:00 10,8 10,7 9 5 21 11 ESE 1014,1 0 0,9
23.09.2018 02:00:00 10,8 10,6 11 6 16 9 ESE 1015,1 0 0,3
23.09.2018 01:00:00 10,7 10,6 11 6 16 9 SE 1016,3 0 0,2
23.09.2018 00:00:00 10,5 10,3 8 5 12 6 ESE 1017,2 0 0,5
22.09.2018 23:00:00 10,6 10,4 7 4 13 7 SSE 1018,4 0 0,3
22.09.2018 22:00:00 10,5 10,3 9 5 13 7 SSE 1019,1 0 0,9
22.09.2018 21:00:00 10,4 9,9 8 4 10 5 SE 1019,7 0 0,5
22.09.2018 20:00:00 10,8 9,9 7 4 10 5 S 1020,0 0 0,1
22.09.2018 19:00:00 11,1 9,6 4 2 7 4 SSW 1019,6 0 1,2
22.09.2018 18:00:00 11,2 9,7 5 3 18 10 WSW 1020,7 0 0,7
22.09.2018 17:00:00 11,7 10,6 10 5 23 12 W 1020,9 0 0,5
22.09.2018 16:00:00 11,5 9,5 11 6 25 13 W 1021,4 0 1,6
22.09.2018 15:00:00 11,8 10,2 16 9 33 18 W 1021,7 0 1,7
22.09.2018 14:00:00 12,3 9,1 29 16 44 24 WNW 1021,4 0 0,0
22.09.2018 13:00:00 15,2 8,4 22 12 34 19 SW 1021,0 26 0,0
22.09.2018 12:00:00 15,2 9,2 19 10 30 16 SW 1021,5 60 0,0
22.09.2018 11:00:00 13,3 9,2 16 8 24 13 SW 1022,0 38 0,1
22.09.2018 10:00:00 11,5 8,7 14 8 23 12 SSW 1022,2 26 0,0
22.09.2018 09:00:00 10,4 8,0 13 7 22 12 SSW 1021,7 16 0,0
22.09.2018 08:00:00 9,7 7,8 11 6 19 10 SSW 1021,8 0 0,0
22.09.2018 07:00:00 9,5 7,6 13 7 19 11 SSW 1021,7 0 0,0
22.09.2018 06:00:00 10,0 7,5 14 7 22 12 SSW 1021,3 0 0,0
22.09.2018 05:00:00 10,0 7,4 13 7 23 13 SSW 1021,1 0 0,0
22.09.2018 04:00:00 10,3 7,4 14 8 25 14 SW 1021,1 0 0,0
22.09.2018 03:00:00 10,6 7,1 14 8 32 17 SW 1020,7 0 0,0
22.09.2018 02:00:00 11,3 7,2 22 12 - - SW 1020,3 0 0,0
22.09.2018 01:00:00 11,9 6,7 23 12 39 21 SW 1019,5 0 0,0
22.09.2018 00:00:00 12,3 6,6 26 14 45 24 SW 1019,0 0 0,0
21.09.2018 23:00:00 12,6 6,1 27 15 41 22 SW 1018,4 0 0,0
21.09.2018 22:00:00 12,7 6,0 26 14 47 26 SW 1017,6 0 0,0
21.09.2018 21:00:00 12,9 5,6 30 16 52 28 WSW 1016,5 0 0,0
21.09.2018 20:00:00 13,7 5,1 29 16 53 29 SW 1015,4 19 0,0
21.09.2018 19:00:00 14,7 5,1 34 18 59 32 WSW 1014,7 43 0,0
21.09.2018 18:00:00 15,7 5,6 33 18 56 30 WSW 1014,1 58 0,0
21.09.2018 17:00:00 15,6 5,3 32 17 59 32 WSW 1013,6 54 0,0
21.09.2018 16:00:00 15,8 6,2 36 20 58 31 WSW 1013,2 58 0,0
21.09.2018 15:00:00 14,4 6,2 31 17 57 31 W 1012,6 24 0,0
21.09.2018 14:00:00 14,5 8,6 32 18 50 27 WSW 1011,4 4 0,0
21.09.2018 13:00:00 14,5 11,3 29 16 50 27 W 1010,3 - -
21.09.2018 12:00:00 14,6 12,4 22 12 47 25 SW 1009,0 30 0,1
21.09.2018 11:00:00 13,7 11,5 23 12 37 20 SSW 1008,3 5 0,0
21.09.2018 10:00:00 13,1 11,7 29 16 66 36 SW 1007,7 0 3,3
21.09.2018 09:00:00 16,6 14,7 29 15 53 29 SSW 1005,2 0 1,6
21.09.2018 08:00:00 18,0 12,8 29 16 63 34 SSW 1004,9 0 0,1
21.09.2018 07:00:00 19,2 11,4 31 17 54 29 SSW 1004,7 0 0,0
21.09.2018 06:00:00 18,3 11,8 24 13 41 22 S 1005,2 0 0,0
21.09.2018 05:00:00 18,8 12,1 27 14 42 23 S 1005,8 0 0,0
21.09.2018 04:00:00 19,2 11,9 22 12 36 19 S 1007,0 0 0,0
21.09.2018 03:00:00 19,5 11,6 19 10 32 17 S 1008,1 0 0,0
21.09.2018 02:00:00 19,0 11,7 14 8 26 14 S 1008,8 0 0,0
21.09.2018 01:00:00 19,4 11,7 14 8 24 13 S 1009,5 0 0,0
21.09.2018 00:00:00 19,8 11,9 17 9 28 15 S 1009,9 0 0,0
20.09.2018 23:00:00 19,9 11,7 16 9 29 16 S 1010,8 0 0,0
20.09.2018 22:00:00 20,5 11,5 18 10 34 18 S 1011,6 0 0,0
20.09.2018 21:00:00 21,3 11,8 17 9 32 18 S 1012,3 0 0,0
20.09.2018 20:00:00 21,9 11,7 14 8 28 15 S 1012,6 0 0,0
20.09.2018 19:00:00 23,0 11,6 18 10 35 19 S 1013,0 29 0,0
20.09.2018 18:00:00 23,5 12,1 24 13 37 20 S 1013,7 60 0,0
20.09.2018 17:00:00 23,9 12,4 22 12 40 21 S 1014,6 60 0,0
20.09.2018 16:00:00 23,7 12,4 23 12 39 21 S 1015,4 60 0,0
20.09.2018 15:00:00 23,3 12,9 23 13 39 21 S 1016,2 60 0,1
20.09.2018 14:00:00 21,8 12,5 25 14 38 21 SSW 1017,2 58 0,0
20.09.2018 13:00:00 21,8 13,4 20 11 40 21 SW 1017,7 53 0,0
20.09.2018 12:00:00 20,9 13,2 25 14 38 20 SW 1018,0 57 0,0
20.09.2018 11:00:00 19,9 13,2 19 10 30 16 SSW 1018,2 60 0,0
20.09.2018 10:00:00 18,0 13,5 17 9 26 14 SSW 1018,5 60 0,0
20.09.2018 09:00:00 16,5 12,9 13 7 24 13 S 1018,4 43 0,0
20.09.2018 08:00:00 15,6 12,4 11 6 16 9 S 1018,4 0 0,0
20.09.2018 07:00:00 16,2 12,4 10 5 18 10 S 1018,2 0 0,0
20.09.2018 06:00:00 16,5 12,5 9 5 16 9 S 1018,4 0 0,0
20.09.2018 05:00:00 15,8 12,0 8 5 16 9 S 1018,4 0 0,0
20.09.2018 04:00:00 15,7 11,9 10 5 16 9 S 1018,4 0 0,0
20.09.2018 03:00:00 15,7 11,8 10 5 13 7 S 1018,5 0 0,0
20.09.2018 02:00:00 16,0 11,7 11 6 15 8 S 1018,7 0 0,0
20.09.2018 01:00:00 16,5 11,7 10 5 15 8 S 1019,2 0 0,0
20.09.2018 00:00:00 17,0 11,6 8 4 11 6 S 1019,4 0 0,0
19.09.2018 23:00:00 18,0 11,7 8 5 13 7 S 1019,5 0 0,0
19.09.2018 22:00:00 18,9 11,5 8 4 19 10 S 1019,1 0 0,0
19.09.2018 21:00:00 19,5 11,7 11 6 19 11 SSW 1018,8 0 0,0
19.09.2018 20:00:00 20,5 11,6 11 6 35 19 SW 1018,6 3 0,0
19.09.2018 19:00:00 22,7 11,5 26 14 40 22 WSW 1017,9 60 0,0
19.09.2018 18:00:00 24,0 10,9 25 13 46 25 WSW 1017,5 60 0,1
19.09.2018 17:00:00 24,7 10,8 23 12 45 25 SW 1017,3 60 0,0
19.09.2018 16:00:00 24,7 11,5 24 13 42 23 SSW 1017,2 60 0,0
19.09.2018 15:00:00 24,2 11,8 28 15 49 26 SSW 1017,5 60 0,1
19.09.2018 14:00:00 23,2 12,5 29 16 44 24 SSW 1017,9 55 0,1
19.09.2018 13:00:00 22,2 13,8 27 15 46 25 SW 1018,1 47 0,1
19.09.2018 12:00:00 22,5 14,3 26 14 40 21 SW 1017,8 60 0,1
19.09.2018 11:00:00 20,7 15,2 23 12 35 19 SSW 1017,5 60 0,1
19.09.2018 10:00:00 19,0 15,2 21 11 34 19 SSW 1017,7 59 0,0
19.09.2018 09:00:00 17,6 15,5 13 7 20 11 S 1017,4 50 0,0
19.09.2018 08:00:00 16,7 15,2 11 6 17 9 S 1017,2 0 0,0
19.09.2018 07:00:00 16,2 15,1 11 6 18 10 SSE 1017,0 0 0,0
19.09.2018 06:00:00 15,9 14,9 11 6 16 8 S 1017,4 0 0,0
19.09.2018 05:00:00 15,7 14,6 13 7 18 10 SSE 1017,3 0 0,0
19.09.2018 04:00:00 14,8 14,1 10 6 15 8 SE 1017,3 0 0,0
19.09.2018 03:00:00 12,4 11,5 5 3 9 5 SE 1017,5 0 0,0
19.09.2018 02:00:00 12,4 10,8 4 2 7 4 ESE 1017,6 0 0,0
19.09.2018 01:00:00 13,8 11,8 4 2 5 3 S 1017,6 0 0,0
19.09.2018 00:00:00 15,5 12,2 4 2 9 5 S 1017,4 0 0,0
18.09.2018 23:00:00 17,4 12,4 6 3 15 8 SW 1017,0 0 0,0
18.09.2018 22:00:00 19,0 13,1 10 5 14 7 W 1016,8 0 0,0
18.09.2018 21:00:00 20,4 12,4 11 6 16 9 WSW 1015,8 0 0,0
18.09.2018 20:00:00 22,1 12,5 14 8 33 18 SW 1015,0 15 0,0
18.09.2018 19:00:00 23,9 12,1 24 13 38 21 WSW 1014,6 60 0,0
18.09.2018 18:00:00 25,2 12,3 20 11 43 23 SW 1014,0 60 0,1
18.09.2018 17:00:00 25,9 10,0 31 17 45 25 WSW 1013,7 60 0,0
18.09.2018 16:00:00 26,5 11,7 34 18 48 26 WSW 1013,7 60 0,0
18.09.2018 15:00:00 26,7 11,3 25 13 46 25 SW 1013,1 60 0,1
18.09.2018 14:00:00 26,0 11,4 25 14 44 24 SW 1013,0 60 0,1
18.09.2018 13:00:00 25,8 12,0 24 13 37 20 SW 1012,9 60 0,1
18.09.2018 12:00:00 24,5 11,5 19 11 34 18 SSW 1012,8 60 0,0
18.09.2018 11:00:00 22,7 12,0 24 13 38 20 SSW 1013,1 60 0,0
18.09.2018 10:00:00 21,8 12,0 19 11 29 16 SSW 1012,7 60 0,0
18.09.2018 09:00:00 19,9 11,2 13 7 26 14 S 1012,3 60 0,0
18.09.2018 08:00:00 18,9 10,1 18 10 26 14 SSE 1011,8 12 0,0
18.09.2018 07:00:00 18,3 9,9 16 9 24 13 SSE 1011,7 0 0,0
18.09.2018 06:00:00 18,3 9,7 17 9 27 14 SSE 1012,0 0 0,0
18.09.2018 05:00:00 17,9 9,8 17 9 24 13 SSE 1012,1 0 0,0
18.09.2018 04:00:00 16,9 9,7 16 9 21 11 SSE 1012,6 0 0,0
18.09.2018 03:00:00 16,6 8,7 14 7 22 12 SE 1012,9 0 0,0
18.09.2018 02:00:00 17,4 8,0 18 10 23 13 SSE 1013,3 0 0,0
18.09.2018 01:00:00 16,3 7,5 13 7 18 10 SSE 1014,0 0 0,0
18.09.2018 00:00:00 15,3 7,4 10 6 14 7 SE 1014,3 0 0,0
17.09.2018 23:00:00 14,0 7,6 7 4 11 6 E 1015,1 0 0,0
17.09.2018 22:00:00 15,5 7,5 6 4 11 6 ESE 1015,1 0 0,0
17.09.2018 21:00:00 16,7 7,3 5 3 8 5 ESE 1015,5 0 0,0
17.09.2018 20:00:00 20,1 6,3 4 2 6 3 ESE 1015,4 37 0,1
17.09.2018 19:00:00 23,8 5,8 4 2 14 7 SE 1015,5 60 0,0
17.09.2018 18:00:00 25,1 3,0 10 6 19 10 SSE 1015,7 60 0,0
17.09.2018 17:00:00 25,7 4,3 11 6 20 11 S 1016,4 60 0,0
17.09.2018 16:00:00 25,4 3,8 14 8 23 12 S 1017,2 60 0,0
17.09.2018 15:00:00 25,0 4,7 13 7 20 11 S 1017,9 60 0,0
17.09.2018 14:00:00 23,7 5,4 11 6 22 12 SSW 1018,8 60 0,0
17.09.2018 13:00:00 22,4 7,7 14 8 22 12 SSW 1019,3 60 0,0
17.09.2018 12:00:00 21,0 9,5 11 6 19 10 S 1020,0 60 0,0
17.09.2018 11:00:00 18,9 10,5 9 5 14 7 S 1020,1 60 0,0
17.09.2018 10:00:00 16,0 11,0 4 2 9 5 SSE 1020,9 60 0,0
17.09.2018 09:00:00 12,2 10,4 4 2 8 4 ESE 1020,9 60 0,0
17.09.2018 08:00:00 9,6 8,1 4 2 13 7 ESE 1020,7 8 0,0
17.09.2018 07:00:00 9,0 7,7 8 5 12 7 SE 1020,5 0 0,0
17.09.2018 06:00:00 7,9 6,8 6 3 8 4 SE 1021,0 0 0,0
17.09.2018 05:00:00 8,5 7,9 6 3 8 4 SE 1020,8 0 0,0
17.09.2018 04:00:00 8,2 7,5 6 3 7 4 SE 1021,0 0 0,0

tt = Température de l'air
td = dewpoint
ff = Vitesse du vent
fx = gusts
dd = Direction du vent
ppp = reduced air pressure
sd = Ensoleillement
rr = Quantités de précipitations

stations d'obs. à proximité